Time;durP1;ratioP1;P1;durP2;ratioP2;P2;SDS_P1;SDS_P2;PMS_P1;PMS_P2;Temp;Humidity;BMP_temperature;BMP_pressure;BME280_temperature;BME280_humidity;BME280_pressure;Samples;Min_cycle;Max_cycle;Signal;HPM_P1;HPM_P2
2021/04/10 00:02:32;;;;;;;0.63;0.53;;;13.30;99.90;;;;;;20721936;23;20239;-68
2021/04/10 00:12:35;;;;;;;0.30;0.20;;;13.30;99.90;;;;;;20635881;28;20203;-68
2021/04/10 00:22:39;;;;;;;0.20;0.20;;;13.30;99.90;;;;;;20653581;28;20253;-67
2021/04/10 00:32:42;;;;;;;0.20;0.20;;;13.40;99.90;;;;;;20650285;28;20203;-66
2021/04/10 00:42:45;;;;;;;0.20;0.00;;;13.40;99.90;;;;;;20707928;28;20253;-66
2021/04/10 00:52:48;;;;;;;1.07;0.30;;;13.40;99.90;;;;;;20718397;28;20195;-66
2021/04/10 01:02:52;;;;;;;0.33;0.30;;;13.30;99.90;;;;;;20733224;23;20232;-77
2021/04/10 01:13:04;;;;;;;3.60;0.57;;;13.30;99.90;;;;;;20650809;28;20200;-78
2021/04/10 01:23:45;;;;;;;0.20;0.00;;;13.30;99.90;;;;;;20644206;28;20230;-78
2021/04/10 01:33:57;;;;;;;0.20;0.00;;;13.30;99.90;;;;;;20666285;28;20195;-77
2021/04/10 01:44:04;;;;;;;2.47;0.40;;;13.20;99.90;;;;;;20700798;28;20227;-78
2021/04/10 01:54:08;;;;;;;0.20;0.10;;;13.00;99.90;;;;;;20664752;28;20259;-80
2021/04/10 02:04:13;;;;;;;0.37;0.30;;;12.90;99.90;;;;;;20664682;28;20286;-77
2021/04/10 02:14:18;;;;;;;0.97;0.87;;;12.90;99.90;;;;;;20662575;28;20200;-76
2021/04/10 02:24:21;;;;;;;0.50;0.33;;;12.90;99.90;;;;;;20659831;28;20239;-76
2021/04/10 02:34:28;;;;;;;2.53;1.17;;;13.00;99.90;;;;;;20660524;28;20287;-77
2021/04/10 02:44:36;;;;;;;1.47;0.93;;;13.00;99.90;;;;;;20730213;28;20677;-78
2021/04/10 02:54:48;;;;;;;3.20;0.40;;;13.00;99.90;;;;;;20740921;28;20651;-76
2021/04/10 03:04:51;;;;;;;0.20;0.10;;;13.00;99.90;;;;;;20665064;28;20239;-79
2021/04/10 03:14:55;;;;;;;1.33;0.87;;;13.00;99.90;;;;;;20641588;28;20201;-78
2021/04/10 03:24:58;;;;;;;0.20;0.10;;;13.00;99.90;;;;;;20655459;28;20277;-78
2021/04/10 03:35:03;;;;;;;0.20;0.03;;;12.90;99.90;;;;;;20656405;28;20208;-77
2021/04/10 03:45:07;;;;;;;0.20;0.10;;;12.90;99.90;;;;;;20711499;28;20753;-78
2021/04/10 03:55:27;;;;;;;0.40;0.40;;;12.90;99.90;;;;;;20736116;28;20194;-78
2021/04/10 04:05:30;;;;;;;0.20;0.10;;;12.80;99.90;;;;;;20735986;28;20577;-78
2021/04/10 04:15:33;;;;;;;0.20;0.10;;;12.80;99.90;;;;;;20734977;28;20204;-77
2021/04/10 04:25:36;;;;;;;0.50;0.40;;;12.70;99.90;;;;;;20733870;28;20305;-77
2021/04/10 04:35:40;;;;;;;0.30;0.30;;;12.70;99.90;;;;;;20733054;28;20211;-76
2021/04/10 04:45:43;;;;;;;3.60;0.70;;;12.80;99.90;;;;;;20732623;28;20660;-76
2021/04/10 04:55:46;;;;;;;0.70;0.70;;;13.00;99.90;;;;;;20741266;28;20194;-75
2021/04/10 05:05:49;;;;;;;0.20;0.10;;;13.20;99.90;;;;;;20747863;28;20234;-77
2021/04/10 05:15:55;;;;;;;0.50;0.43;;;13.30;99.90;;;;;;20747849;28;20194;-77
2021/04/10 05:25:58;;;;;;;0.20;0.10;;;13.40;99.90;;;;;;20747051;28;20265;-77
2021/04/10 05:36:02;;;;;;;0.20;0.10;;;13.50;99.90;;;;;;20746397;28;20203;-78
2021/04/10 05:46:04;;;;;;;0.20;0.10;;;13.60;99.90;;;;;;20745701;28;20282;-76
2021/04/10 05:56:08;;;;;;;7.00;0.67;;;13.60;99.90;;;;;;20744739;28;20298;-77
2021/04/10 06:06:12;;;;;;;3.20;0.60;;;13.60;99.90;;;;;;20742822;28;20322;-78
2021/04/10 06:16:16;;;;;;;0.20;0.10;;;13.60;99.90;;;;;;20742673;28;20251;-78
2021/04/10 06:26:19;;;;;;;0.20;0.10;;;13.30;99.90;;;;;;20741047;28;20233;-78
2021/04/10 06:36:24;;;;;;;1.17;1.07;;;13.20;99.90;;;;;;20741017;28;20565;-79
2021/04/10 06:46:32;;;;;;;0.83;0.83;;;13.10;99.90;;;;;;20739627;28;20703;-78
2021/04/10 06:56:38;;;;;;;0.50;0.47;;;12.90;99.90;;;;;;20740014;28;20524;-81
2021/04/10 07:06:41;;;;;;;0.20;0.20;;;12.60;99.90;;;;;;20732581;28;20309;-79
2021/04/10 07:16:58;;;;;;;0.27;0.27;;;12.70;99.90;;;;;;20673432;28;20237;-79
2021/04/10 07:27:01;;;;;;;1.00;1.00;;;12.70;99.90;;;;;;20659376;28;20215;-81
2021/04/10 07:37:07;;;;;;;0.90;0.90;;;12.90;99.90;;;;;;20654374;28;20219;-79
2021/04/10 07:47:10;;;;;;;0.30;0.30;;;13.00;99.90;;;;;;20637636;28;20243;-80
2021/04/10 07:57:15;;;;;;;1.10;0.33;;;13.40;99.90;;;;;;20636865;28;20585;-78
2021/04/10 08:07:24;;;;;;;0.23;0.20;;;13.60;99.90;;;;;;20650882;28;20228;-77
2021/04/10 08:17:36;;;;;;;0.20;0.10;;;13.80;99.90;;;;;;20651208;28;20645;-76
2021/04/10 08:27:40;;;;;;;0.60;0.50;;;14.00;99.90;;;;;;20631547;28;20230;-77
2021/04/10 08:37:53;;;;;;;0.30;0.10;;;14.00;99.90;;;;;;20647013;28;20531;-76
2021/04/10 08:48:01;;;;;;;0.20;0.20;;;14.40;99.90;;;;;;20730120;28;20317;-76
2021/04/10 08:58:24;;;;;;;20.00;10.20;;;14.50;99.90;;;;;;20667495;28;20679;-79
2021/04/10 09:08:28;;;;;;;0.40;0.40;;;14.10;99.90;;;;;;20648893;28;20235;-81
2021/04/10 09:18:36;;;;;;;0.40;0.40;;;13.90;99.90;;;;;;20634801;28;20192;-80
2021/04/10 09:29:16;;;;;;;1.43;0.87;;;14.10;99.90;;;;;;20634073;28;20310;-82
2021/04/10 09:39:54;;;;;;;0.77;0.77;;;14.00;99.90;;;;;;20664130;28;20272;-82
2021/04/10 09:49:57;;;;;;;0.30;0.20;;;14.00;99.90;;;;;;20676484;28;20231;-80
2021/04/10 10:00:00;;;;;;;0.60;0.60;;;14.20;99.90;;;;;;20648238;28;20684;-79
2021/04/10 10:10:10;;;;;;;0.20;0.10;;;14.50;99.90;;;;;;20643587;28;20529;-78
2021/04/10 10:20:16;;;;;;;0.97;0.87;;;14.70;99.90;;;;;;20649201;28;20469;-81
2021/04/10 10:30:22;;;;;;;7.03;1.47;;;14.70;99.90;;;;;;20619401;28;20228;-76
2021/04/10 10:40:26;;;;;;;0.53;0.40;;;14.60;99.90;;;;;;20675901;28;20540;-81
2021/04/10 10:50:29;;;;;;;8.30;0.50;;;14.90;99.90;;;;;;20622677;28;20224;-79
2021/04/10 11:00:33;;;;;;;0.23;0.23;;;14.80;99.90;;;;;;20648563;28;20239;-78
2021/04/10 11:10:36;;;;;;;0.53;0.53;;;14.70;99.90;;;;;;20622621;28;20211;-80
2021/04/10 11:20:45;;;;;;;3.00;1.20;;;14.60;99.90;;;;;;20632223;28;20226;-81
2021/04/10 11:31:06;;;;;;;1.33;0.90;;;14.50;99.90;;;;;;20637063;28;20277;-75
2021/04/10 11:41:12;;;;;;;4.47;1.57;;;14.60;99.90;;;;;;20695195;28;20237;-77
2021/04/10 11:51:26;;;;;;;5.90;1.07;;;14.70;99.90;;;;;;20735054;28;20219;-79
2021/04/10 12:01:32;;;;;;;0.80;0.80;;;14.50;99.90;;;;;;20719476;28;20578;-76
2021/04/10 12:22:45;;;;;;;0.30;0.20;;;14.60;99.90;;;;;;20637549;28;20192;-78
2021/04/10 12:32:56;;;;;;;0.73;0.40;;;14.60;99.90;;;;;;20642803;28;20656;-81
2021/04/10 12:43:00;;;;;;;0.20;0.00;;;14.50;99.90;;;;;;20634038;28;20198;-76
2021/04/10 12:53:02;;;;;;;0.20;0.10;;;14.50;99.90;;;;;;20644168;23;20303;-82
2021/04/10 13:03:12;;;;;;;0.23;0.20;;;14.70;99.90;;;;;;20619029;28;20246;-79
2021/04/10 13:13:14;;;;;;;0.70;0.67;;;14.50;99.90;;;;;;20622656;28;20226;-78
2021/04/10 13:23:23;;;;;;;0.30;0.20;;;14.60;99.90;;;;;;20632219;28;20215;-79
2021/04/10 13:33:26;;;;;;;0.20;0.13;;;14.50;99.90;;;;;;20585611;28;20212;-79
2021/04/10 13:43:30;;;;;;;0.40;0.33;;;14.70;99.90;;;;;;20669173;23;20326;-78
2021/04/10 13:54:01;;;;;;;0.40;0.27;;;14.80;99.90;;;;;;20643485;28;20220;-78
2021/04/10 14:15:32;;;;;;;2.10;0.63;;;14.90;99.90;;;;;;20822747;23;20286;-77
2021/04/10 14:25:36;;;;;;;0.20;0.10;;;14.90;99.90;;;;;;20631718;23;20247;-76
2021/04/10 14:35:41;;;;;;;0.60;0.50;;;14.70;99.90;;;;;;21291106;23;20269;-77
2021/04/10 14:57:25;;;;;;;0.83;0.40;;;14.80;99.90;;;;;;20398117;29;20233;-83
2021/04/10 15:07:27;;;;;;;17.20;1.03;;;14.80;99.90;;;;;;20415317;29;20264;-78
2021/04/10 15:17:31;;;;;;;0.20;0.20;;;14.80;99.90;;;;;;20415025;29;20225;-74
2021/04/10 15:27:33;;;;;;;0.20;0.13;;;15.10;99.90;;;;;;20414434;29;20248;-79
2021/04/10 15:37:37;;;;;;;1.03;0.53;;;14.80;99.90;;;;;;20426228;29;20189;-78
2021/04/10 15:47:40;;;;;;;0.27;0.17;;;15.20;99.90;;;;;;20447566;29;20221;-78
2021/04/10 15:57:44;;;;;;;0.20;0.10;;;15.10;99.90;;;;;;20411605;29;20684;-79
2021/04/10 16:07:46;;;;;;;0.30;0.23;;;15.20;99.90;;;;;;20410351;29;20276;-76
2021/04/10 16:17:50;;;;;;;2.00;0.30;;;15.10;99.90;;;;;;20410419;29;20202;-80
2021/04/10 16:28:01;;;;;;;8.90;1.13;;;15.00;99.90;;;;;;20396954;29;20574;-77
2021/04/10 16:38:05;;;;;;;0.80;0.67;;;14.90;99.90;;;;;;20404876;29;20192;-81
2021/04/10 16:48:09;;;;;;;0.20;0.10;;;14.90;99.90;;;;;;20499818;28;20244;-80
2021/04/10 16:58:13;;;;;;;0.20;0.10;;;14.80;99.90;;;;;;20503215;28;20714;-80
2021/04/10 17:08:18;;;;;;;0.20;0.13;;;14.80;99.90;;;;;;20441919;29;20217;-83
2021/04/10 17:18:22;;;;;;;5.23;1.40;;;14.80;99.90;;;;;;20448281;29;20205;-82
2021/04/10 17:28:25;;;;;;;1.23;0.50;;;14.80;99.90;;;;;;20592110;23;20237;-84
2021/04/10 17:38:31;;;;;;;0.30;0.30;;;14.90;99.90;;;;;;20693816;28;20244;-81
2021/04/10 17:49:09;;;;;;;0.20;0.10;;;14.90;99.90;;;;;;20669006;28;20232;-81
2021/04/10 17:59:13;;;;;;;0.20;0.10;;;14.70;99.90;;;;;;20618471;28;21439;-82
2021/04/10 18:09:16;;;;;;;0.20;0.00;;;14.20;99.90;;;;;;20638219;28;20301;-82
2021/04/10 18:19:22;;;;;;;0.60;0.60;;;14.20;99.90;;;;;;20647548;28;20191;-84
2021/04/10 18:29:25;;;;;;;2.43;0.33;;;14.00;99.90;;;;;;20630321;28;20237;-80
2021/04/10 18:39:28;;;;;;;1.00;0.90;;;14.10;99.90;;;;;;20673900;28;20640;-81
2021/04/10 18:49:31;;;;;;;0.40;0.33;;;14.20;99.90;;;;;;20656641;28;20225;-81
2021/04/10 19:11:59;;;;;;;3.40;1.40;;;13.80;99.90;;;;;;20654428;28;20603;-77
2021/04/10 19:23:07;;;;;;;0.20;0.20;;;13.60;99.90;;;;;;20643935;23;20287;-82
2021/04/10 19:33:24;;;;;;;0.67;0.23;;;13.60;99.90;;;;;;20626271;28;20282;-81
2021/04/10 19:43:28;;;;;;;1.07;0.87;;;13.20;99.90;;;;;;20675871;28;20198;-75
2021/04/10 19:53:32;;;;;;;1.70;1.60;;;12.80;99.90;;;;;;20616345;28;20612;-76
2021/04/10 20:03:37;;;;;;;1.27;1.07;;;12.60;99.90;;;;;;20648896;28;20301;-74
2021/04/10 20:13:44;;;;;;;0.43;0.43;;;12.40;99.90;;;;;;20586673;28;20235;-75
2021/04/10 20:23:49;;;;;;;3.47;1.20;;;12.10;99.90;;;;;;20599816;28;20307;-73
2021/04/10 20:34:01;;;;;;;0.60;0.50;;;12.00;99.90;;;;;;20647342;28;20195;-73
2021/04/10 20:44:04;;;;;;;0.73;0.73;;;11.90;99.90;;;;;;20647179;28;20227;-72
2021/04/10 20:54:12;;;;;;;0.80;0.80;;;11.70;99.90;;;;;;20645585;28;20199;-72
2021/04/10 21:04:17;;;;;;;1.10;0.73;;;11.50;99.90;;;;;;20628820;28;20342;-73
2021/04/10 21:14:20;;;;;;;0.40;0.40;;;11.50;99.90;;;;;;20629456;28;20203;-76
2021/04/10 21:24:28;;;;;;;0.97;0.97;;;11.20;99.90;;;;;;20643892;28;20242;-74
2021/04/10 21:34:32;;;;;;;3.03;1.90;;;11.00;99.90;;;;;;20634203;28;20199;-74
2021/04/10 21:44:38;;;;;;;0.33;0.33;;;11.00;99.90;;;;;;20647511;28;20431;-75
2021/04/10 21:54:45;;;;;;;0.67;0.63;;;10.90;99.90;;;;;;20609332;28;20192;-74
2021/04/10 22:28:05;;;;;;;0.30;0.30;;;10.80;99.90;;;;;;20262221;29;20607;-75
2021/04/10 22:38:18;;;;;;;2.10;1.90;;;10.60;99.90;;;;;;20190039;29;20203;-74
2021/04/10 22:48:26;;;;;;;0.20;0.10;;;10.70;99.90;;;;;;20233673;29;20286;-74
2021/04/10 22:58:29;;;;;;;0.60;0.60;;;10.40;99.90;;;;;;20309443;29;20207;-74
2021/04/10 23:08:33;;;;;;;3.37;1.40;;;10.40;99.90;;;;;;20543566;28;20222;-75
2021/04/10 23:18:36;;;;;;;0.33;0.30;;;10.30;99.90;;;;;;20734602;28;20557;-75
2021/04/10 23:28:39;;;;;;;1.40;1.30;;;10.10;99.90;;;;;;20720106;28;20599;-76
2021/04/10 23:38:42;;;;;;;0.27;0.23;;;9.90;99.90;;;;;;20681001;28;20195;-74
2021/04/10 23:48:46;;;;;;;1.20;0.87;;;10.30;99.90;;;;;;20657461;28;20223;-74
2021/04/10 23:58:51;;;;;;;0.20;0.10;;;10.00;99.90;;;;;;20652428;28;20623;-75
